Time;durP1;ratioP1;P1;durP2;ratioP2;P2;SDS_P1;SDS_P2;PMS_P1;PMS_P2;Temp;Humidity;BMP_temperature;BMP_pressure;BME280_temperature;BME280_humidity;BME280_pressure;Samples;Min_cycle;Max_cycle;Signal;HPM_P1;HPM_P2
2022/04/15 00:01:38;;;;;;;10.88;6.00;;;10.00;99.90;;;;;;15600632;22;20452;-86
2022/04/15 00:07:41;;;;;;;12.73;5.70;;;9.90;99.90;;;;;;15603282;22;20046;-84
2022/04/15 00:13:45;;;;;;;9.65;6.32;;;9.80;99.90;;;;;;15606685;22;20055;-85
2022/04/15 00:19:47;;;;;;;12.20;6.25;;;9.80;99.90;;;;;;15631641;22;20077;-85
2022/04/15 00:25:50;;;;;;;10.70;6.78;;;9.70;99.90;;;;;;15607569;22;20086;-86
2022/04/15 00:31:52;;;;;;;11.68;6.13;;;9.80;99.90;;;;;;15631092;22;20482;-87
2022/04/15 00:37:54;;;;;;;11.13;6.50;;;9.80;99.90;;;;;;15638269;22;20036;-86
2022/04/15 00:43:58;;;;;;;12.65;7.38;;;9.80;99.90;;;;;;15613600;22;20051;-86
2022/04/15 00:50:00;;;;;;;10.27;7.07;;;9.70;99.90;;;;;;15610598;22;20069;-86
2022/04/15 00:56:03;;;;;;;13.57;7.30;;;9.70;99.90;;;;;;15612081;22;20105;-87
2022/04/15 01:02:08;;;;;;;16.42;8.18;;;9.50;99.90;;;;;;15638667;22;20079;-85
2022/04/15 01:08:16;;;;;;;14.27;7.35;;;9.50;99.90;;;;;;15614908;22;20019;-85
2022/04/15 01:14:21;;;;;;;13.18;8.30;;;9.30;99.90;;;;;;15639501;22;20023;-86
2022/04/15 01:20:23;;;;;;;12.15;8.10;;;9.20;99.90;;;;;;15611262;22;20023;-86
2022/04/15 01:26:25;;;;;;;18.88;8.40;;;9.20;99.90;;;;;;15613181;22;20066;-84
2022/04/15 01:32:27;;;;;;;16.75;8.43;;;9.10;99.90;;;;;;15611154;22;20031;-87
2022/04/15 01:38:29;;;;;;;13.20;7.43;;;9.10;99.90;;;;;;15640053;22;20817;-87
2022/04/15 01:44:31;;;;;;;10.00;6.55;;;9.00;99.90;;;;;;15651282;22;20033;-86
2022/04/15 01:50:33;;;;;;;8.07;6.22;;;8.80;99.90;;;;;;15654956;22;20030;-86
2022/04/15 01:56:35;;;;;;;11.32;7.35;;;8.90;99.90;;;;;;15630300;22;20027;-85
2022/04/15 02:02:37;;;;;;;11.95;7.13;;;8.80;99.90;;;;;;15617483;22;20027;-85
2022/04/15 02:08:38;;;;;;;10.68;7.20;;;9.00;99.90;;;;;;15617141;22;20080;-86
2022/04/15 02:14:40;;;;;;;12.90;7.45;;;8.90;99.90;;;;;;15657798;22;20019;-87
2022/04/15 02:20:42;;;;;;;12.18;7.75;;;8.90;99.90;;;;;;15618540;22;20035;-84
2022/04/15 02:26:44;;;;;;;14.02;8.73;;;9.00;99.90;;;;;;15605716;22;20027;-86
2022/04/15 02:32:46;;;;;;;17.15;9.90;;;9.10;99.90;;;;;;15605832;22;20038;-84
2022/04/15 02:38:48;;;;;;;17.13;9.40;;;9.00;99.90;;;;;;15603674;22;20157;-84
2022/04/15 02:44:52;;;;;;;13.88;9.75;;;9.00;99.90;;;;;;15603366;22;20022;-86
2022/04/15 02:50:54;;;;;;;;;;;9.00;99.90;;;;;;15604180;22;20455;-84
2022/04/15 02:56:56;;;;;;;15.00;9.63;;;9.00;99.90;;;;;;15604765;22;19990;-85
2022/04/15 03:02:58;;;;;;;14.75;8.15;;;8.70;99.90;;;;;;15606134;22;20511;-84
2022/04/15 03:09:00;;;;;;;13.98;8.77;;;8.50;99.90;;;;;;15630821;22;20027;-86
2022/04/15 03:15:04;;;;;;;17.60;9.80;;;8.50;99.90;;;;;;15629569;22;20038;-85
2022/04/15 03:21:06;;;;;;;18.87;9.03;;;8.50;99.90;;;;;;15630825;22;20095;-84
2022/04/15 03:27:07;;;;;;;10.10;6.63;;;8.20;99.90;;;;;;15603482;22;20511;-85
2022/04/15 03:33:09;;;;;;;8.13;4.47;;;8.40;99.90;;;;;;15635040;22;20569;-86
2022/04/15 03:39:11;;;;;;;10.45;4.40;;;8.10;99.90;;;;;;15607792;22;20455;-84
2022/04/15 03:45:18;;;;;;;8.85;4.38;;;7.90;99.90;;;;;;15600611;22;20070;-86
2022/04/15 03:51:19;;;;;;;7.70;4.85;;;8.10;99.90;;;;;;15631089;22;20030;-86
2022/04/15 03:57:21;;;;;;;12.18;6.00;;;8.10;99.90;;;;;;15606744;22;20098;-85
2022/04/15 04:03:23;;;;;;;7.88;5.40;;;8.10;99.90;;;;;;15605255;22;20027;-84
2022/04/15 04:09:25;;;;;;;7.38;5.32;;;8.10;99.90;;;;;;15632592;22;20042;-87
2022/04/15 04:15:27;;;;;;;6.88;5.20;;;8.10;99.90;;;;;;15612624;22;20101;-84
2022/04/15 04:21:30;;;;;;;10.25;5.50;;;8.20;99.90;;;;;;15614530;22;20027;-84
2022/04/15 04:27:32;;;;;;;8.30;5.10;;;8.30;99.90;;;;;;15612890;22;20339;-84
2022/04/15 04:33:34;;;;;;;7.07;4.88;;;8.20;99.90;;;;;;15609561;22;20096;-84
2022/04/15 04:39:36;;;;;;;8.50;4.97;;;8.00;99.90;;;;;;15612033;22;20066;-86
2022/04/15 04:45:38;;;;;;;9.13;5.13;;;8.20;99.90;;;;;;15607422;22;20027;-86
2022/04/15 04:51:41;;;;;;;7.57;4.47;;;8.00;99.90;;;;;;15607376;22;20042;-84
2022/04/15 04:57:43;;;;;;;7.20;4.88;;;8.00;99.90;;;;;;15633421;22;20145;-83
2022/04/15 05:03:45;;;;;;;8.82;5.32;;;7.90;99.90;;;;;;15609178;22;20094;-84
2022/04/15 05:09:47;;;;;;;7.20;5.50;;;7.90;99.90;;;;;;15608374;22;20088;-84
2022/04/15 05:15:48;;;;;;;9.00;5.45;;;7.90;99.90;;;;;;15635193;22;20543;-84
2022/04/15 05:21:52;;;;;;;8.80;5.68;;;8.00;99.90;;;;;;15636526;22;20084;-86
2022/04/15 05:27:58;;;;;;;8.48;5.93;;;7.80;99.90;;;;;;15506139;22;20023;-84
2022/04/15 05:34:00;;;;;;;8.48;6.22;;;8.00;99.90;;;;;;15481530;22;20024;-84
2022/04/15 05:40:03;;;;;;;9.95;6.22;;;8.00;99.90;;;;;;15484410;22;20135;-84
2022/04/15 05:46:05;;;;;;;8.32;6.53;;;7.90;99.90;;;;;;15482888;22;20060;-85
2022/04/15 05:52:07;;;;;;;7.97;6.22;;;8.10;99.90;;;;;;15507426;22;20008;-85
2022/04/15 05:58:10;;;;;;;11.25;6.60;;;8.00;99.90;;;;;;15488436;23;20028;-85
2022/04/15 06:04:12;;;;;;;7.55;5.50;;;7.90;99.90;;;;;;15484940;23;20042;-85
2022/04/15 06:10:14;;;;;;;8.13;5.80;;;7.90;99.90;;;;;;15497647;22;20032;-85
2022/04/15 06:16:23;;;;;;;8.45;5.57;;;8.10;99.90;;;;;;15482403;22;20035;-84
2022/04/15 06:22:25;;;;;;;9.05;6.35;;;8.00;99.90;;;;;;15477598;22;20024;-86
2022/04/15 06:28:27;;;;;;;9.70;5.72;;;8.00;99.90;;;;;;15505023;22;20032;-84
2022/04/15 06:34:29;;;;;;;8.75;6.22;;;8.20;99.90;;;;;;15478694;22;20407;-85
2022/04/15 06:40:31;;;;;;;8.68;5.93;;;8.10;99.90;;;;;;15477191;22;20023;-86
2022/04/15 06:46:33;;;;;;;10.88;5.78;;;8.30;99.90;;;;;;15501502;22;20090;-85
2022/04/15 06:52:35;;;;;;;8.32;5.88;;;8.20;99.90;;;;;;15480655;22;20166;-84
2022/04/15 06:58:37;;;;;;;10.95;6.05;;;8.10;99.90;;;;;;15480375;22;20123;-84
2022/04/15 07:04:39;;;;;;;9.73;6.45;;;8.40;99.90;;;;;;15478343;23;20035;-84
2022/04/15 07:10:41;;;;;;;10.85;6.25;;;8.50;99.90;;;;;;15474423;22;20356;-84
2022/04/15 07:16:43;;;;;;;10.95;6.35;;;8.70;99.90;;;;;;15475061;23;20020;-84
2022/04/15 07:22:45;;;;;;;11.40;6.43;;;9.00;99.90;;;;;;15478002;22;20028;-86
2022/04/15 07:28:53;;;;;;;8.07;5.78;;;9.20;99.90;;;;;;15628707;22;20038;-85
2022/04/15 07:34:55;;;;;;;8.68;4.65;;;9.20;99.90;;;;;;15599340;22;20030;-85
2022/04/15 07:40:58;;;;;;;6.10;4.22;;;9.20;99.90;;;;;;15615877;22;20047;-85
2022/04/15 07:47:00;;;;;;;5.18;3.92;;;9.40;99.90;;;;;;15602913;22;20027;-84
2022/04/15 07:53:02;;;;;;;7.38;3.85;;;9.50;99.90;;;;;;15606702;22;20023;-84
2022/04/15 07:59:04;;;;;;;6.38;3.53;;;9.50;99.90;;;;;;15607611;22;20106;-84
2022/04/15 08:05:06;;;;;;;7.18;3.75;;;9.60;99.90;;;;;;15606328;22;20023;-85
2022/04/15 08:11:09;;;;;;;6.57;3.65;;;9.60;99.90;;;;;;15607655;22;20105;-85
2022/04/15 08:17:11;;;;;;;5.75;4.05;;;9.90;99.90;;;;;;15607110;22;20023;-84
2022/04/15 08:23:14;;;;;;;4.45;3.58;;;9.90;99.90;;;;;;15604629;22;20130;-84
2022/04/15 08:29:17;;;;;;;4.85;3.13;;;9.90;99.90;;;;;;15634333;22;20156;-85
2022/04/15 08:35:20;;;;;;;5.40;3.28;;;10.00;99.90;;;;;;15607814;22;20649;-85
2022/04/15 08:41:24;;;;;;;5.60;3.40;;;10.20;99.90;;;;;;15635148;22;20081;-86
2022/04/15 08:47:27;;;;;;;6.70;3.50;;;10.10;99.90;;;;;;15681480;22;20019;-85
2022/04/15 08:53:29;;;;;;;6.22;4.00;;;10.40;99.90;;;;;;15642662;22;20101;-84
2022/04/15 08:59:31;;;;;;;7.07;3.15;;;11.00;99.90;;;;;;15622867;22;20011;-86
2022/04/15 09:05:33;;;;;;;4.45;2.92;;;10.80;99.90;;;;;;15617435;22;20077;-85
2022/04/15 09:11:39;;;;;;;6.05;3.03;;;11.60;99.90;;;;;;15635198;22;20011;-84
2022/04/15 09:17:47;;;;;;;5.73;3.20;;;11.70;99.90;;;;;;15636453;22;20030;-85
2022/04/15 09:23:51;;;;;;;5.32;2.90;;;11.50;99.90;;;;;;15611593;22;20019;-85
2022/04/15 09:29:54;;;;;;;4.60;2.70;;;11.00;99.90;;;;;;15605185;22;20313;-84
2022/04/15 09:35:56;;;;;;;7.70;3.63;;;10.50;99.90;;;;;;15603632;22;20047;-84
2022/04/15 09:42:03;;;;;;;4.60;2.80;;;10.40;99.90;;;;;;15605911;22;20023;-85
2022/04/15 09:48:07;;;;;;;3.53;2.70;;;10.20;99.90;;;;;;15633105;22;20027;-85
2022/04/15 09:54:26;;;;;;;4.05;2.80;;;10.30;99.90;;;;;;15609746;22;20464;-85
2022/04/15 10:00:30;;;;;;;3.20;2.28;;;10.50;99.90;;;;;;15629514;22;20102;-85
2022/04/15 10:06:32;;;;;;;4.38;3.10;;;10.70;99.90;;;;;;15601500;22;20438;-85
2022/04/15 10:12:39;;;;;;;3.92;2.60;;;10.80;99.90;;;;;;15602214;22;20108;-86
2022/04/15 10:18:41;;;;;;;2.83;2.00;;;10.90;99.90;;;;;;15630138;22;20027;-86
2022/04/15 10:24:43;;;;;;;3.08;2.00;;;11.30;99.90;;;;;;15626953;22;20454;-86
2022/04/15 10:31:16;;;;;;;3.85;2.03;;;11.30;99.90;;;;;;15601901;22;20188;-84
2022/04/15 10:37:53;;;;;;;3.95;2.30;;;11.20;99.90;;;;;;15608546;22;20848;-85
2022/04/15 10:43:57;;;;;;;2.90;2.10;;;11.30;99.90;;;;;;15602864;22;20027;-86
2022/04/15 10:50:07;;;;;;;4.72;3.10;;;11.50;99.90;;;;;;15605875;22;20098;-85
2022/04/15 10:56:09;;;;;;;4.40;2.75;;;11.50;99.90;;;;;;15603385;22;20196;-85
2022/04/15 11:02:13;;;;;;;4.70;2.75;;;11.50;99.90;;;;;;15599261;22;20153;-86
2022/04/15 11:08:18;;;;;;;4.07;2.90;;;11.40;99.90;;;;;;15603146;22;20072;-86
2022/04/15 11:14:34;;;;;;;5.30;3.22;;;11.60;99.90;;;;;;15625637;22;20034;-85
2022/04/15 11:20:35;;;;;;;6.97;4.28;;;11.30;99.90;;;;;;15606444;22;20094;-86
2022/04/15 11:26:40;;;;;;;7.38;3.80;;;11.10;99.90;;;;;;15601341;22;20027;-84
2022/04/15 11:32:46;;;;;;;5.93;4.30;;;11.10;99.90;;;;;;15627154;22;20566;-84
2022/04/15 11:38:50;;;;;;;4.85;3.92;;;11.20;99.90;;;;;;15625108;22;20095;-86
2022/04/15 11:44:52;;;;;;;6.10;3.53;;;11.40;99.90;;;;;;15629193;22;20533;-86
2022/04/15 11:50:54;;;;;;;5.97;3.80;;;11.50;99.90;;;;;;15627448;22;20055;-84
2022/04/15 11:56:58;;;;;;;4.90;3.38;;;11.40;99.90;;;;;;15630080;22;20084;-86
2022/04/15 12:03:00;;;;;;;5.77;3.80;;;11.20;99.90;;;;;;15601757;22;20023;-84
2022/04/15 12:09:03;;;;;;;5.32;3.80;;;11.10;99.90;;;;;;15602933;22;20425;-85
2022/04/15 12:15:26;;;;;;;6.47;3.72;;;11.30;99.90;;;;;;15628158;22;20023;-85
2022/04/15 12:21:29;;;;;;;5.32;3.80;;;11.70;99.90;;;;;;15599740;22;20070;-86
2022/04/15 12:27:34;;;;;;;6.00;4.20;;;11.50;99.90;;;;;;15631279;22;20609;-84
2022/04/15 12:33:46;;;;;;;6.90;4.30;;;11.30;99.90;;;;;;15603915;22;20112;-85
2022/04/15 12:39:52;;;;;;;7.63;4.53;;;10.90;99.90;;;;;;15644106;22;20030;-85
2022/04/15 12:45:56;;;;;;;8.40;4.90;;;11.10;99.90;;;;;;15683860;22;20023;-85
2022/04/15 12:52:09;;;;;;;7.25;4.30;;;11.00;99.90;;;;;;15635254;22;20072;-85
2022/04/15 12:58:29;;;;;;;6.80;4.20;;;11.20;99.90;;;;;;15615351;22;20023;-86
2022/04/15 13:04:31;;;;;;;6.88;3.92;;;11.50;99.90;;;;;;15608973;22;20112;-85
2022/04/15 13:10:33;;;;;;;5.85;3.90;;;11.70;99.90;;;;;;15605067;22;20019;-85
2022/04/15 13:16:55;;;;;;;6.55;3.95;;;12.20;99.90;;;;;;15609586;22;20377;-86
2022/04/15 13:22:57;;;;;;;7.05;3.90;;;12.20;99.90;;;;;;15604440;22;20027;-85
2022/04/15 13:28:59;;;;;;;6.18;4.07;;;12.30;99.90;;;;;;15600430;22;20527;-86
2022/04/15 13:35:01;;;;;;;6.60;4.15;;;12.20;99.90;;;;;;15629085;22;20396;-85
2022/04/15 13:41:03;;;;;;;7.80;4.50;;;12.10;99.90;;;;;;15600039;22;20130;-85
2022/04/15 13:47:05;;;;;;;6.65;4.50;;;11.70;99.90;;;;;;15626470;22;20027;-86
2022/04/15 13:59:28;;;;;;;6.38;4.65;;;11.90;99.90;;;;;;15629268;22;21100;-85
2022/04/15 14:05:29;;;;;;;8.13;4.82;;;12.00;99.90;;;;;;15627751;22;20027;-86
2022/04/15 14:11:34;;;;;;;8.35;4.05;;;12.40;99.90;;;;;;15597079;22;20168;-86
2022/04/15 14:17:36;;;;;;;7.40;4.50;;;13.10;99.90;;;;;;15599709;22;20054;-85
2022/04/15 14:23:38;;;;;;;8.25;4.70;;;12.60;99.90;;;;;;15597484;22;20096;-86
2022/04/15 14:29:40;;;;;;;6.28;4.22;;;12.50;99.90;;;;;;15600278;22;20034;-86
2022/04/15 14:35:43;;;;;;;5.82;4.43;;;12.50;99.90;;;;;;15597659;22;20023;-86
2022/04/15 14:41:46;;;;;;;8.68;5.45;;;12.40;99.90;;;;;;15601578;22;20027;-85
2022/04/15 14:47:48;;;;;;;7.55;5.25;;;12.10;99.90;;;;;;15605914;22;20027;-86
2022/04/15 14:53:50;;;;;;;7.22;5.55;;;12.20;99.90;;;;;;15630910;22;20108;-85
2022/04/15 14:59:52;;;;;;;8.65;6.07;;;12.40;99.90;;;;;;15634965;22;20387;-86
2022/04/15 15:05:54;;;;;;;10.93;7.22;;;12.60;99.90;;;;;;15611634;22;20541;-85
2022/04/15 15:11:57;;;;;;;13.25;7.40;;;12.70;99.90;;;;;;15632926;22;20049;-86
2022/04/15 15:17:59;;;;;;;11.80;7.35;;;12.50;99.90;;;;;;15609439;22;20023;-85
2022/04/15 15:30:42;;;;;;;10.50;7.28;;;12.50;99.90;;;;;;15631565;22;21298;-86
2022/04/15 15:36:44;;;;;;;12.15;7.13;;;13.00;99.90;;;;;;15605915;22;20134;-86
2022/04/15 15:42:46;;;;;;;9.30;7.03;;;13.70;99.90;;;;;;15604319;22;20102;-87
2022/04/15 15:48:48;;;;;;;9.20;6.68;;;14.20;99.90;;;;;;15602961;22;20109;-86
2022/04/15 15:54:49;;;;;;;8.15;5.60;;;14.40;99.90;;;;;;15645676;22;20028;-87
2022/04/15 16:00:51;;;;;;;9.15;5.68;;;14.30;99.90;;;;;;15615653;22;20037;-87
2022/04/15 16:06:53;;;;;;;8.30;5.90;;;14.00;99.90;;;;;;15600195;22;20102;-87
2022/04/15 16:12:55;;;;;;;9.60;5.22;;;14.10;99.90;;;;;;15606232;22;20054;-87
2022/04/15 16:18:57;;;;;;;6.78;4.32;;;14.40;99.90;;;;;;15605938;22;20352;-85
2022/04/15 16:25:00;;;;;;;8.75;4.70;;;14.40;99.90;;;;;;15631505;22;20046;-86
2022/04/15 16:31:02;;;;;;;4.93;3.78;;;14.30;99.90;;;;;;15634019;22;20066;-86
2022/04/15 16:37:04;;;;;;;6.78;4.22;;;13.90;99.90;;;;;;15608775;22;20459;-86
2022/04/15 16:43:06;;;;;;;6.68;4.55;;;13.10;99.90;;;;;;15635345;22;20051;-85
2022/04/15 16:49:08;;;;;;;9.32;4.63;;;12.60;99.90;;;;;;15603472;22;20030;-87
2022/04/15 17:01:31;;;;;;;7.57;4.50;;;12.70;99.90;;;;;;15627669;22;20352;-87
2022/04/15 17:07:33;;;;;;;8.75;5.50;;;12.50;99.90;;;;;;15604604;22;20027;-87
2022/04/15 17:13:46;;;;;;;8.88;5.30;;;12.10;99.90;;;;;;15631697;22;20027;-86
2022/04/15 17:19:48;;;;;;;11.85;5.95;;;11.60;99.90;;;;;;15591357;22;20023;-86
2022/04/15 17:25:51;;;;;;;9.25;6.07;;;11.60;99.90;;;;;;15617370;22;20029;-85
2022/04/15 17:31:53;;;;;;;9.55;5.80;;;11.30;99.90;;;;;;15583091;22;20019;-86
2022/04/15 17:37:55;;;;;;;7.50;5.40;;;11.20;99.90;;;;;;15580627;22;20152;-86
2022/04/15 17:43:57;;;;;;;7.47;5.45;;;10.90;99.90;;;;;;15628911;22;20853;-85
2022/04/15 17:49:59;;;;;;;12.60;6.97;;;10.70;99.90;;;;;;15608099;22;20851;-85
2022/04/15 17:56:00;;;;;;;10.15;5.45;;;10.80;99.90;;;;;;15631844;22;20113;-85
2022/04/15 18:02:02;;;;;;;10.23;5.72;;;10.70;99.90;;;;;;15607076;22;20503;-86
2022/04/15 18:08:05;;;;;;;9.55;6.35;;;10.70;99.90;;;;;;15614265;22;20023;-86
2022/04/15 18:14:06;;;;;;;9.02;5.43;;;10.60;99.90;;;;;;15610810;22;20376;-86
2022/04/15 18:20:09;;;;;;;8.35;5.78;;;10.60;99.90;;;;;;15602222;22;20019;-86
2022/04/15 18:26:11;;;;;;;9.38;6.93;;;10.60;99.90;;;;;;15626731;22;20023;-87
2022/04/15 18:32:19;;;;;;;10.65;6.75;;;10.50;99.90;;;;;;15631820;22;20015;-86
2022/04/15 18:38:21;;;;;;;10.43;6.85;;;10.50;99.90;;;;;;15629689;22;20028;-85
2022/04/15 18:44:23;;;;;;;14.70;8.65;;;10.40;99.90;;;;;;15605081;22;20391;-85
2022/04/15 18:57:06;;;;;;;13.23;7.95;;;10.40;99.90;;;;;;15632429;22;20435;-86
2022/04/15 19:03:07;;;;;;;12.00;8.20;;;10.40;99.90;;;;;;15601115;22;20117;-85
2022/04/15 19:09:09;;;;;;;12.82;8.48;;;10.30;99.90;;;;;;15634755;22;20023;-85
2022/04/15 19:15:11;;;;;;;12.35;8.45;;;10.30;99.90;;;;;;15624826;22;20035;-86
2022/04/15 19:21:14;;;;;;;10.85;7.85;;;10.30;99.90;;;;;;15605469;22;20096;-86
2022/04/15 19:27:15;;;;;;;13.27;8.35;;;10.20;99.90;;;;;;15636981;22;20108;-86
2022/04/15 19:33:19;;;;;;;14.07;8.85;;;10.20;99.90;;;;;;15599086;22;20444;-86
2022/04/15 19:39:21;;;;;;;13.48;8.73;;;10.20;99.90;;;;;;15628941;22;20084;-86
2022/04/15 19:45:23;;;;;;;14.40;9.30;;;10.10;99.90;;;;;;15605558;22;20161;-86
2022/04/15 19:51:25;;;;;;;13.63;9.25;;;10.10;99.90;;;;;;15631500;22;20045;-85
2022/04/15 20:04:07;;;;;;;16.60;10.40;;;10.10;99.90;;;;;;15633210;22;20031;-85
2022/04/15 20:10:09;;;;;;;15.32;10.88;;;10.00;99.90;;;;;;15611190;22;20031;-85
2022/04/15 20:16:11;;;;;;;18.95;12.55;;;9.90;99.90;;;;;;15639405;22;20055;-85
2022/04/15 20:22:14;;;;;;;17.67;11.85;;;9.90;99.90;;;;;;15630004;22;20026;-85
2022/04/15 20:28:17;;;;;;;16.65;11.23;;;9.90;99.90;;;;;;15607418;22;20034;-85
2022/04/15 20:34:19;;;;;;;15.43;11.35;;;9.80;99.90;;;;;;15607734;22;20051;-85
2022/04/15 20:40:21;;;;;;;17.20;12.23;;;9.90;99.90;;;;;;15609206;22;20521;-85
2022/04/15 20:46:23;;;;;;;18.92;13.70;;;9.90;99.90;;;;;;15634872;22;20104;-86
2022/04/15 20:52:29;;;;;;;16.90;12.60;;;9.90;99.90;;;;;;15605593;22;20389;-86
2022/04/15 20:58:31;;;;;;;16.80;12.55;;;9.90;99.90;;;;;;15632483;22;20113;-85
2022/04/15 21:04:34;;;;;;;18.50;13.70;;;9.90;99.90;;;;;;15635803;22;20027;-86
2022/04/15 21:10:36;;;;;;;20.70;15.18;;;9.90;99.90;;;;;;15632926;22;20039;-86
2022/04/15 21:16:38;;;;;;;22.60;16.05;;;9.90;99.90;;;;;;15633881;22;20069;-86
2022/04/15 21:22:41;;;;;;;18.65;14.38;;;9.80;99.90;;;;;;15634677;22;20134;-86
2022/04/15 21:28:43;;;;;;;20.27;15.57;;;10.00;99.90;;;;;;15608153;22;20055;-85
2022/04/15 21:34:44;;;;;;;20.63;15.82;;;9.90;99.90;;;;;;15603853;22;20106;-86
2022/04/15 21:40:46;;;;;;;23.35;16.17;;;9.80;99.90;;;;;;15606231;22;20096;-86
2022/04/15 21:46:48;;;;;;;28.98;18.55;;;9.90;99.90;;;;;;15628905;22;20054;-85
2022/04/15 21:52:50;;;;;;;23.48;17.38;;;9.70;99.90;;;;;;15599847;22;20031;-86
2022/04/15 21:58:52;;;;;;;29.60;18.30;;;9.80;99.90;;;;;;15605631;22;20421;-85
2022/04/15 22:04:54;;;;;;;25.10;18.58;;;9.60;99.90;;;;;;15601746;22;20104;-86
2022/04/15 22:10:56;;;;;;;25.40;17.50;;;9.70;99.90;;;;;;15602453;22;20019;-87
2022/04/15 22:17:16;;;;;;;25.08;19.10;;;9.70;99.90;;;;;;15604792;22;20103;-86
2022/04/15 22:23:18;;;;;;;26.38;18.80;;;9.60;99.90;;;;;;15629831;22;20023;-85
2022/04/15 22:29:20;;;;;;;27.90;18.80;;;9.70;99.90;;;;;;15606186;22;20537;-86
2022/04/15 22:35:24;;;;;;;28.05;19.27;;;9.60;99.90;;;;;;15664960;22;20081;-86
2022/04/15 22:41:26;;;;;;;25.65;17.80;;;9.60;99.90;;;;;;15616611;22;20554;-86
2022/04/15 22:47:38;;;;;;;27.52;18.63;;;9.60;99.90;;;;;;15644349;22;20072;-86
2022/04/15 22:53:40;;;;;;;27.75;20.20;;;9.60;99.90;;;;;;15606821;22;20047;-84
2022/04/15 22:59:43;;;;;;;25.40;18.77;;;9.50;99.90;;;;;;15629225;22;20475;-85
2022/04/15 23:05:45;;;;;;;28.25;19.83;;;9.50;99.90;;;;;;15627423;22;20126;-85
2022/04/15 23:11:46;;;;;;;24.35;17.23;;;9.50;99.90;;;;;;15624298;22;20123;-84
2022/04/15 23:17:49;;;;;;;22.40;14.95;;;9.30;99.90;;;;;;15628804;22;20058;-85
2022/04/15 23:23:52;;;;;;;21.60;14.93;;;9.30;99.90;;;;;;15594483;22;20031;-84
2022/04/15 23:29:53;;;;;;;21.40;14.57;;;9.40;99.90;;;;;;15628000;22;20022;-86
2022/04/15 23:35:56;;;;;;;18.52;13.73;;;9.30;99.90;;;;;;15623119;22;20054;-84
2022/04/15 23:41:59;;;;;;;19.38;13.40;;;9.50;99.90;;;;;;15599470;22;20034;-84
2022/04/15 23:54:21;;;;;;;16.20;11.43;;;9.20;99.90;;;;;;15627218;22;20086;-85
